Time;durP1;ratioP1;P1;durP2;ratioP2;P2;SDS_P1;SDS_P2;PMS_P1;PMS_P2;Temp;Humidity;BMP_temperature;BMP_pressure;BME280_temperature;BME280_humidity;BME280_pressure;Samples;Min_cycle;Max_cycle;Signal;HPM_P1;HPM_P2
2022/01/06 00:01:09;;;;;;;77.47;36.40;;;;;;;5.16;73.89;99012.00;3133093;28;20053;-68
2022/01/06 00:02:42;;;;;;;79.55;38.40;;;;;;;5.17;73.92;99011.09;3133378;28;20130;-69
2022/01/06 00:04:13;;;;;;;71.20;33.78;;;;;;;5.16;73.88;99011.16;3129872;28;20154;-69
2022/01/06 00:05:45;;;;;;;69.57;33.88;;;;;;;5.15;73.85;99018.06;3129708;28;20041;-69
2022/01/06 00:07:17;;;;;;;77.85;36.05;;;;;;;5.15;73.91;99024.97;3130547;28;20061;-68
2022/01/06 00:08:53;;;;;;;81.35;35.22;;;;;;;5.14;73.92;99021.53;3131627;28;20500;-68
2022/01/06 00:10:28;;;;;;;76.32;35.67;;;;;;;5.13;74.06;99031.91;3131597;28;20128;-68
2022/01/06 00:12:00;;;;;;;71.15;34.03;;;;;;;5.06;74.25;99023.56;3129731;28;20053;-68
2022/01/06 00:13:36;;;;;;;73.45;34.05;;;;;;;5.11;74.26;99031.94;3132281;28;20106;-68
2022/01/06 00:15:23;;;;;;;62.55;33.40;;;;;;;5.02;74.23;99024.53;3124689;28;20049;-68
2022/01/06 00:17:15;;;;;;;67.63;33.88;;;;;;;5.05;74.30;99042.50;3130160;28;20072;-68
2022/01/06 00:24:13;;;;;;;60.13;31.63;;;;;;;4.99;74.62;99051.28;3129337;28;20135;-70
2022/01/06 00:25:45;;;;;;;68.97;32.53;;;;;;;4.97;74.62;99049.69;3132775;28;20588;-70
2022/01/06 00:27:17;;;;;;;69.82;32.38;;;;;;;4.97;74.76;99049.69;3130939;28;20041;-69
2022/01/06 00:28:49;;;;;;;62.05;32.17;;;;;;;5.00;74.80;99065.06;3129885;28;20901;-68
2022/01/06 00:30:20;;;;;;;70.70;32.95;;;;;;;5.00;74.63;99065.06;3132194;28;20064;-70
2022/01/06 00:31:53;;;;;;;60.70;32.28;;;;;;;4.97;74.63;99052.25;3128465;28;20056;-70
2022/01/06 00:33:25;;;;;;;65.60;32.08;;;;;;;4.66;74.46;99003.44;3131490;28;20118;-70
2022/01/06 00:34:57;;;;;;;70.45;32.95;;;;;;;4.99;74.62;99053.03;3130454;28;20049;-68
2022/01/06 00:36:30;;;;;;;66.93;33.22;;;;;;;4.99;74.62;99059.03;3130221;28;20053;-69
2022/01/06 00:38:02;;;;;;;67.40;32.03;;;;;;;4.91;74.60;99036.97;3130371;28;20049;-69
2022/01/06 00:39:35;;;;;;;66.57;32.00;;;;;;;4.96;74.56;99046.22;3129575;28;20193;-70
2022/01/06 00:41:07;;;;;;;69.07;33.33;;;;;;;4.95;74.70;99043.72;3132324;28;20053;-69
2022/01/06 00:42:39;;;;;;;65.65;32.78;;;;;;;4.96;74.63;99050.56;3132109;28;20103;-69
2022/01/06 00:44:11;;;;;;;63.57;31.77;;;;;;;4.92;74.66;99038.66;3129459;28;20560;-69
2022/01/06 00:45:43;;;;;;;72.07;32.35;;;;;;;4.94;74.67;99032.56;3130637;28;20057;-69
2022/01/06 00:47:15;;;;;;;60.47;32.30;;;;;;;4.94;74.61;99032.56;3130630;28;20045;-69
2022/01/06 00:48:47;;;;;;;68.18;31.92;;;;;;;4.90;74.74;99032.72;3129245;28;20041;-70
2022/01/06 00:50:17;;;;;;;68.03;31.73;;;;;;;4.91;74.85;99036.97;3132047;28;20045;-70
2022/01/06 00:51:49;;;;;;;58.97;29.95;;;;;;;4.89;74.69;99042.19;3129443;28;20075;-70
2022/01/06 00:53:21;;;;;;;63.83;30.35;;;;;;;4.88;74.64;99043.09;3131476;28;20056;-69
2022/01/06 00:54:54;;;;;;;67.03;32.40;;;;;;;4.85;74.69;99039.75;3128451;28;20056;-70
2022/01/06 00:56:26;;;;;;;68.88;32.53;;;;;;;4.85;74.77;99044.91;3128807;28;20079;-70
2022/01/06 00:57:58;;;;;;;64.60;31.48;;;;;;;4.82;74.71;99040.69;3131702;28;20580;-69
2022/01/06 00:59:30;;;;;;;77.97;31.60;;;;;;;4.83;74.73;99029.50;3130375;28;20541;-69
2022/01/06 01:01:02;;;;;;;62.47;30.98;;;;;;;4.84;74.54;99022.59;3130803;28;20110;-69
2022/01/06 01:02:34;;;;;;;68.85;31.77;;;;;;;4.81;74.68;99020.97;3137386;28;20208;-69
2022/01/06 01:04:06;;;;;;;62.35;29.85;;;;;;;4.79;74.61;99010.72;3129781;28;20526;-69
2022/01/06 01:05:38;;;;;;;66.32;31.67;;;;;;;4.78;74.57;99024.47;3131683;28;20056;-69
2022/01/06 01:07:10;;;;;;;62.57;30.33;;;;;;;4.76;74.71;99012.53;3131278;28;20071;-69
2022/01/06 01:08:42;;;;;;;56.25;29.33;;;;;;;4.76;74.69;99013.41;3129452;28;20690;-69
2022/01/06 01:10:16;;;;;;;63.75;30.85;;;;;;;4.66;74.67;98996.53;3131299;28;20364;-68
2022/01/06 01:11:48;;;;;;;63.67;31.05;;;;;;;4.71;74.75;99017.03;3129853;28;20075;-69
2022/01/06 01:13:27;;;;;;;66.22;29.75;;;;;;;4.68;74.78;99017.97;3130934;28;20049;-69
2022/01/06 01:15:05;;;;;;;59.45;28.77;;;;;;;4.67;74.79;99018.00;3131266;28;20076;-69
2022/01/06 01:16:37;;;;;;;56.95;29.40;;;;;;;4.60;74.82;99009.63;3128538;28;20599;-70
2022/01/06 01:18:10;;;;;;;56.75;29.08;;;;;;;4.65;74.90;99014.66;3131803;28;20059;-70
2022/01/06 01:19:42;;;;;;;54.50;28.42;;;;;;;4.60;74.92;99016.53;3131146;28;20049;-69
2022/01/06 01:21:14;;;;;;;60.88;30.25;;;;;;;4.61;74.89;99016.47;3129984;28;20517;-69
2022/01/06 01:22:47;;;;;;;60.92;30.10;;;;;;;4.61;74.99;99010.47;3131530;28;20057;-68
2022/01/06 01:24:19;;;;;;;60.33;29.27;;;;;;;4.59;74.99;99017.44;3128847;28;20056;-69
2022/01/06 01:25:53;;;;;;;58.20;28.65;;;;;;;4.58;74.98;99011.41;3131467;28;20504;-69
2022/01/06 01:27:27;;;;;;;61.20;30.70;;;;;;;4.57;74.96;99013.16;3131266;28;20138;-69
2022/01/06 01:29:23;;;;;;;62.55;31.05;;;;;;;4.56;74.88;99006.31;3129341;28;20085;-69
2022/01/06 01:31:04;;;;;;;57.38;29.50;;;;;;;4.48;75.16;99004.88;3131275;28;20057;-69
2022/01/06 01:32:37;;;;;;;62.03;29.95;;;;;;;4.50;75.14;99011.69;3128553;28;20049;-70
2022/01/06 01:34:10;;;;;;;60.85;29.75;;;;;;;4.48;75.15;99008.31;3131640;28;20517;-70
2022/01/06 01:35:42;;;;;;;63.88;30.50;;;;;;;4.48;75.19;99007.47;3129571;28;20056;-68
2022/01/06 01:37:14;;;;;;;59.97;29.95;;;;;;;4.44;75.22;99006.72;3130377;28;20045;-68
2022/01/06 01:38:46;;;;;;;56.05;28.42;;;;;;;4.47;75.28;99014.38;3131236;28;20049;-68
2022/01/06 01:40:17;;;;;;;62.08;29.23;;;;;;;4.46;75.24;99010.09;3129479;28;20049;-67
2022/01/06 01:41:51;;;;;;;59.10;29.60;;;;;;;4.45;75.33;99008.41;3130577;28;20115;-68
2022/01/06 01:43:22;;;;;;;57.65;29.73;;;;;;;4.44;75.26;99003.31;3129391;28;20111;-69
2022/01/06 01:44:55;;;;;;;64.00;30.42;;;;;;;4.44;75.30;98996.41;3130499;28;20082;-69
2022/01/06 01:46:29;;;;;;;57.28;30.60;;;;;;;4.42;75.33;98998.19;3131472;28;20056;-70
2022/01/06 01:48:05;;;;;;;69.72;33.88;;;;;;;4.06;75.46;98940.97;3130271;28;20060;-69
2022/01/06 01:49:48;;;;;;;70.13;33.22;;;;;;;4.39;75.39;98997.47;3131001;28;20045;-70
2022/01/06 01:51:20;;;;;;;66.38;32.63;;;;;;;4.34;75.53;99000.19;3129745;28;20480;-69
2022/01/06 01:52:54;;;;;;;69.07;33.03;;;;;;;4.32;75.66;98994.25;3131491;28;20442;-70
2022/01/06 01:54:26;;;;;;;72.45;33.67;;;;;;;4.33;75.49;98991.59;3130693;28;20049;-70
2022/01/06 01:55:58;;;;;;;68.97;34.97;;;;;;;4.29;75.50;98984.88;3129276;28;20049;-69
2022/01/06 01:57:31;;;;;;;65.78;32.92;;;;;;;4.27;75.46;98989.22;3132601;28;20210;-69
2022/01/06 01:59:04;;;;;;;64.40;33.63;;;;;;;4.26;75.40;98991.84;3130024;28;20112;-69
2022/01/06 02:00:36;;;;;;;71.07;34.33;;;;;;;4.23;75.60;98987.66;3130069;28;20056;-69
2022/01/06 02:02:09;;;;;;;76.63;35.05;;;;;;;4.16;75.57;98981.00;3133785;28;20048;-70
2022/01/06 02:03:40;;;;;;;80.47;35.72;;;;;;;4.22;75.53;98998.00;3130235;28;20541;-69
2022/01/06 02:05:13;;;;;;;74.38;36.40;;;;;;;4.16;75.53;98986.16;3133253;28;20060;-70
2022/01/06 02:06:45;;;;;;;71.97;35.83;;;;;;;4.14;75.42;98987.09;3133368;28;20118;-70
2022/01/06 02:08:17;;;;;;;72.82;34.90;;;;;;;4.17;75.55;98992.16;3131681;28;20446;-70
2022/01/06 02:09:49;;;;;;;70.47;34.80;;;;;;;4.14;75.65;98992.25;3133463;28;20045;-70
2022/01/06 02:11:20;;;;;;;69.25;34.13;;;;;;;4.15;75.60;99002.50;3132875;28;20430;-70
2022/01/06 02:12:55;;;;;;;71.22;35.05;;;;;;;4.14;75.68;98993.09;3132397;28;20142;-70
2022/01/06 02:14:27;;;;;;;64.65;34.42;;;;;;;4.15;75.63;99001.69;3133726;28;20053;-69
2022/01/06 02:16:01;;;;;;;69.55;36.10;;;;;;;4.07;75.45;98989.88;3131758;28;20053;-70
2022/01/06 02:17:33;;;;;;;67.45;34.42;;;;;;;4.13;75.62;98996.56;3133546;28;20053;-70
2022/01/06 02:19:05;;;;;;;66.05;34.13;;;;;;;4.10;75.72;98994.06;3133110;28;20559;-70
2022/01/06 02:20:39;;;;;;;75.63;34.90;;;;;;;4.11;75.56;99000.91;3131747;28;20041;-69
2022/01/06 02:22:10;;;;;;;71.72;36.25;;;;;;;4.09;75.74;98993.25;3133728;28;20469;-69
2022/01/06 02:23:43;;;;;;;70.78;34.40;;;;;;;4.10;75.82;98999.22;3131411;28;20080;-69
2022/01/06 02:25:17;;;;;;;66.95;33.80;;;;;;;4.09;75.87;99007.88;3126122;28;20057;-70
2022/01/06 02:26:47;;;;;;;71.22;35.35;;;;;;;4.09;75.79;99002.72;3129679;28;20099;-69
2022/01/06 02:28:22;;;;;;;68.88;33.45;;;;;;;4.08;75.88;99004.44;3131699;28;20052;-70
2022/01/06 02:29:54;;;;;;;68.50;34.13;;;;;;;4.07;75.74;99009.63;3132222;28;20145;-68
2022/01/06 02:31:26;;;;;;;64.30;32.78;;;;;;;4.05;75.74;99003.69;3131635;28;20063;-69
2022/01/06 02:33:00;;;;;;;68.55;33.95;;;;;;;4.07;75.86;99005.31;3132729;28;20083;-69
2022/01/06 02:34:31;;;;;;;63.80;31.38;;;;;;;4.06;75.89;99011.38;3133733;28;20049;-69
2022/01/06 02:36:05;;;;;;;61.17;32.45;;;;;;;4.07;75.87;99007.91;3131324;28;20061;-69
2022/01/06 02:37:37;;;;;;;67.45;34.10;;;;;;;4.02;76.19;99009.78;3133000;28;20132;-70
2022/01/06 02:39:10;;;;;;;65.55;33.05;;;;;;;4.02;76.20;99006.34;3133351;28;20056;-70
2022/01/06 02:40:42;;;;;;;68.95;34.63;;;;;;;4.03;76.28;99013.22;3132293;28;20059;-70
2022/01/06 02:42:12;;;;;;;70.60;33.63;;;;;;;4.02;76.24;99011.50;3133181;28;20053;-70
2022/01/06 02:43:44;;;;;;;71.90;33.40;;;;;;;4.02;76.39;99008.94;3131354;28;20110;-70
2022/01/06 02:45:17;;;;;;;68.13;32.60;;;;;;;3.85;76.10;98974.25;3131277;28;20084;-70
2022/01/06 02:46:48;;;;;;;66.37;32.67;;;;;;;4.03;76.33;99005.47;3132975;28;20527;-69
2022/01/06 02:48:19;;;;;;;61.45;33.28;;;;;;;4.04;76.35;98999.44;3130442;28;20298;-68
2022/01/06 02:49:51;;;;;;;64.75;32.05;;;;;;;3.98;76.37;98985.00;3132803;28;20071;-69
2022/01/06 02:51:24;;;;;;;63.70;32.80;;;;;;;4.05;76.40;98995.94;3126320;28;20049;-68
2022/01/06 02:52:56;;;;;;;64.43;30.95;;;;;;;4.04;76.40;98994.28;3131143;28;20064;-69
2022/01/06 02:54:29;;;;;;;64.53;30.90;;;;;;;4.05;76.36;98994.25;3130185;28;20072;-69
2022/01/06 02:56:01;;;;;;;59.67;31.10;;;;;;;4.02;76.33;98988.31;3129189;28;20383;-68
2022/01/06 02:57:32;;;;;;;59.75;30.48;;;;;;;4.04;76.37;98994.28;3132597;28;20327;-69
2022/01/06 02:59:04;;;;;;;58.33;30.05;;;;;;;3.99;76.43;98983.25;3132490;28;20048;-69
2022/01/06 03:00:36;;;;;;;62.15;31.77;;;;;;;4.03;76.50;98992.59;3129996;28;20106;-69
2022/01/06 03:02:09;;;;;;;65.10;30.98;;;;;;;4.04;76.50;98983.97;3134732;28;20049;-69
2022/01/06 03:03:41;;;;;;;61.00;31.13;;;;;;;4.04;76.56;98992.53;3131655;28;20052;-69
2022/01/06 03:05:13;;;;;;;57.70;30.30;;;;;;;4.04;76.39;98995.13;3132001;28;20143;-69
2022/01/06 03:06:47;;;;;;;58.42;31.20;;;;;;;4.02;76.37;98988.31;3133104;28;20045;-69
2022/01/06 03:08:22;;;;;;;60.50;31.40;;;;;;;4.01;76.56;98999.53;3130199;28;20052;-69
2022/01/06 03:09:56;;;;;;;67.10;31.63;;;;;;;3.97;76.57;98995.38;3133333;28;20590;-69
2022/01/06 03:11:27;;;;;;;59.95;30.23;;;;;;;4.02;76.69;99006.34;3132242;28;20128;-69
2022/01/06 03:12:58;;;;;;;67.15;29.98;;;;;;;3.72;76.83;98946.34;3130514;28;20056;-69
2022/01/06 03:14:32;;;;;;;59.53;29.27;;;;;;;4.00;76.82;99005.59;3133057;28;20118;-70
2022/01/06 03:16:04;;;;;;;53.63;29.65;;;;;;;4.00;76.77;99009.00;3131121;28;20049;-69
2022/01/06 03:17:36;;;;;;;60.33;31.33;;;;;;;4.00;77.04;99003.00;3132464;28;20451;-69
2022/01/06 03:19:07;;;;;;;60.13;30.95;;;;;;;4.00;76.60;98997.84;3132275;28;20115;-69
2022/01/06 03:20:39;;;;;;;58.03;30.83;;;;;;;4.04;76.90;99014.88;3131001;28;20120;-70
2022/01/06 03:22:13;;;;;;;59.40;30.20;;;;;;;4.02;76.86;99004.66;3129437;28;20086;-71
2022/01/06 03:23:45;;;;;;;66.10;30.67;;;;;;;4.04;77.03;99020.03;3124405;28;20053;-68
2022/01/06 03:25:17;;;;;;;58.60;29.80;;;;;;;4.04;77.03;99020.03;3132465;28;20045;-71
2022/01/06 03:26:49;;;;;;;58.42;29.73;;;;;;;4.01;77.09;99002.94;3132731;28;20049;-70
2022/01/06 03:28:21;;;;;;;54.20;30.92;;;;;;;4.05;77.04;99016.56;3130603;28;20049;-71
2022/01/06 03:29:53;;;;;;;64.28;32.28;;;;;;;4.05;76.92;99020.00;3131707;28;20049;-71
2022/01/06 03:31:23;;;;;;;68.28;30.48;;;;;;;4.06;76.89;99019.09;3132601;28;20053;-71
2022/01/06 03:32:55;;;;;;;62.40;31.17;;;;;;;4.04;76.90;99027.78;3129672;28;20124;-71
2022/01/06 03:34:30;;;;;;;67.45;30.60;;;;;;;4.02;76.87;99029.53;3132590;28;20135;-71
2022/01/06 03:36:02;;;;;;;64.55;31.25;;;;;;;4.05;76.85;99022.59;3130035;28;20133;-69
2022/01/06 03:37:35;;;;;;;61.60;31.42;;;;;;;3.84;76.89;98997.47;3128833;28;20060;-67
2022/01/06 03:39:07;;;;;;;62.38;30.77;;;;;;;4.02;76.98;99032.13;3120173;28;20053;-69
2022/01/06 03:40:40;;;;;;;63.25;30.35;;;;;;;4.02;76.92;99027.84;3129886;28;20068;-67
2022/01/06 03:42:13;;;;;;;61.88;30.50;;;;;;;3.97;77.15;99029.69;3132332;28;20124;-69
2022/01/06 03:43:44;;;;;;;61.95;31.65;;;;;;;3.98;77.09;99035.69;3126045;28;20171;-67
2022/01/06 03:45:18;;;;;;;58.42;30.38;;;;;;;3.99;76.96;99037.38;3129512;28;20057;-67
2022/01/06 03:46:50;;;;;;;64.22;30.85;;;;;;;3.97;76.94;99023.72;3132401;28;20063;-67
2022/01/06 03:48:22;;;;;;;62.85;31.00;;;;;;;3.97;77.00;99034.00;3130642;28;20191;-67
2022/01/06 03:49:54;;;;;;;56.10;29.70;;;;;;;3.98;77.12;99046.00;3130143;28;20110;-67
2022/01/06 03:51:26;;;;;;;57.13;30.85;;;;;;;3.98;76.88;99040.84;3132197;28;20053;-68
2022/01/06 03:52:58;;;;;;;59.88;30.77;;;;;;;3.81;76.92;99008.69;3130775;28;20045;-68
2022/01/06 03:54:30;;;;;;;65.20;32.88;;;;;;;3.96;76.89;99037.47;3128997;28;20066;-68
2022/01/06 03:56:02;;;;;;;60.95;31.10;;;;;;;3.94;76.89;99031.53;3124522;28;20439;-70
2022/01/06 03:57:35;;;;;;;60.75;31.10;;;;;;;3.93;76.85;99040.13;3132386;28;20049;-70
2022/01/06 03:59:07;;;;;;;56.75;31.52;;;;;;;3.84;76.98;99030.94;3132496;28;20087;-70
2022/01/06 04:00:39;;;;;;;64.90;32.55;;;;;;;3.70;76.73;99003.06;3130551;28;20526;-70
2022/01/06 04:02:11;;;;;;;59.35;30.40;;;;;;;3.93;76.87;99040.97;3134337;28;20170;-70
2022/01/06 04:03:44;;;;;;;60.58;30.83;;;;;;;3.93;76.92;99048.69;3135911;28;20052;-71
2022/01/06 04:05:16;;;;;;;60.15;30.50;;;;;;;3.92;76.89;99038.44;3132124;28;20056;-71
2022/01/06 04:06:48;;;;;;;53.75;30.38;;;;;;;3.84;76.75;99024.06;3132745;28;20095;-71
2022/01/06 04:08:21;;;;;;;53.97;29.08;;;;;;;3.93;76.86;99032.41;3131646;28;20048;-70
2022/01/06 04:09:52;;;;;;;59.08;30.52;;;;;;;3.88;76.86;99046.28;3131555;28;20122;-70
2022/01/06 04:11:24;;;;;;;57.70;30.15;;;;;;;3.88;76.88;99037.72;3132109;28;20646;-70
2022/01/06 04:12:55;;;;;;;64.97;30.58;;;;;;;3.87;76.77;99039.44;3129986;28;20478;-69
2022/01/06 04:14:27;;;;;;;56.30;30.38;;;;;;;3.90;76.81;99042.78;3131970;28;20107;-71
2022/01/06 04:16:02;;;;;;;61.15;31.65;;;;;;;3.87;76.88;99039.44;3131393;28;20053;-69
2022/01/06 04:17:33;;;;;;;65.38;29.75;;;;;;;3.72;76.65;99019.28;3130157;28;20045;-71
2022/01/06 04:19:05;;;;;;;55.28;29.65;;;;;;;3.84;76.56;99046.41;3132432;28;20059;-70
2022/01/06 04:20:37;;;;;;;57.88;30.38;;;;;;;3.77;76.67;99038.03;3130217;28;20052;-70
2022/01/06 04:22:09;;;;;;;57.70;30.35;;;;;;;3.85;76.89;99046.38;3130863;28;20064;-70
2022/01/06 04:23:43;;;;;;;55.40;30.13;;;;;;;3.85;76.89;99051.50;3130873;28;20449;-70
2022/01/06 04:25:15;;;;;;;;;;;;;;;3.66;77.04;99047.78;3130580;28;20901;-70
2022/01/06 04:26:47;;;;;;;60.88;28.38;;;;;;;3.70;77.21;99039.09;3131893;28;19974;-68
2022/01/06 04:28:19;;;;;;;57.78;29.30;;;;;;;3.75;77.18;99052.66;3131534;28;20044;-68
2022/01/06 04:29:51;;;;;;;54.83;27.70;;;;;;;3.60;77.21;99030.78;3130455;28;20060;-68
2022/01/06 04:31:23;;;;;;;56.20;28.98;;;;;;;3.78;77.18;99051.72;3131935;28;20060;-68
2022/01/06 04:32:55;;;;;;;56.63;28.83;;;;;;;3.80;77.18;99057.69;3129280;28;20426;-68
2022/01/06 04:34:27;;;;;;;55.97;26.92;;;;;;;3.79;77.13;99062.00;3131699;28;20118;-69
2022/01/06 04:35:58;;;;;;;50.20;27.90;;;;;;;3.79;77.09;99061.16;3131839;28;20052;-69
2022/01/06 04:37:30;;;;;;;47.83;26.35;;;;;;;3.79;77.13;99061.16;3129901;28;20683;-69
2022/01/06 04:39:04;;;;;;;52.60;27.08;;;;;;;3.79;76.97;99067.16;3131591;28;20080;-69
2022/01/06 04:40:36;;;;;;;48.95;25.67;;;;;;;3.79;76.95;99076.63;3129779;28;20106;-69
2022/01/06 04:42:08;;;;;;;50.10;26.75;;;;;;;3.77;76.88;99055.22;3131786;28;20103;-69
2022/01/06 04:43:39;;;;;;;55.58;26.77;;;;;;;3.78;76.91;99054.31;3132153;28;20053;-69
2022/01/06 04:45:11;;;;;;;48.83;25.45;;;;;;;3.79;76.88;99062.00;3130493;28;20441;-69
2022/01/06 04:46:43;;;;;;;57.65;26.35;;;;;;;3.81;76.87;99054.22;3131697;28;20048;-69
2022/01/06 04:48:15;;;;;;;54.60;28.67;;;;;;;3.82;76.78;99053.34;3131386;28;20526;-69
2022/01/06 04:49:46;;;;;;;53.20;27.42;;;;;;;3.80;76.88;99058.53;3130851;28;20049;-69
2022/01/06 04:51:18;;;;;;;56.28;29.38;;;;;;;3.78;76.81;99055.16;3131803;28;20545;-69
2022/01/06 04:52:50;;;;;;;57.30;28.20;;;;;;;3.78;76.92;99050.00;3130056;28;20103;-69
2022/01/06 04:54:23;;;;;;;53.88;27.30;;;;;;;3.78;76.91;99049.16;3128932;28;20052;-69
2022/01/06 04:55:57;;;;;;;59.78;28.52;;;;;;;3.78;76.89;99051.72;3131535;28;20052;-69
2022/01/06 04:57:29;;;;;;;62.35;31.13;;;;;;;3.78;76.97;99036.28;3130673;28;20045;-69
2022/01/06 04:59:00;;;;;;;57.40;29.58;;;;;;;3.77;76.84;99042.34;3131122;28;20052;-69
2022/01/06 05:00:32;;;;;;;54.25;28.02;;;;;;;3.76;76.84;99051.78;3131117;28;20580;-69
2022/01/06 05:02:06;;;;;;;57.38;28.42;;;;;;;3.78;76.78;99057.72;3131314;28;20122;-69
2022/01/06 05:03:37;;;;;;;;;;;;;;;3.60;76.93;99046.22;3134932;28;20068;-69
2022/01/06 05:05:13;;;;;;;54.83;25.90;;;;;;;3.64;77.19;99049.59;3129764;28;19931;-69
2022/01/06 05:06:45;;;;;;;54.00;25.98;;;;;;;3.68;77.11;99058.88;3132166;28;20120;-69
2022/01/06 05:08:16;;;;;;;51.67;26.08;;;;;;;3.71;76.83;99058.81;3130155;28;20132;-69
2022/01/06 05:10:35;;;;;;;49.38;25.83;;;;;;;3.74;76.66;99063.03;3130961;28;20537;-69
2022/01/06 05:12:08;;;;;;;48.00;25.10;;;;;;;3.63;76.85;99066.72;3121094;28;20444;-69
2022/01/06 05:13:40;;;;;;;52.08;27.27;;;;;;;3.67;76.92;99070.09;3129663;28;20041;-69
2022/01/06 05:15:14;;;;;;;53.83;26.15;;;;;;;3.71;76.69;99066.53;3131816;28;20053;-70
2022/01/06 05:16:46;;;;;;;51.75;25.55;;;;;;;3.71;76.73;99076.00;3130564;28;20037;-69
2022/01/06 05:18:17;;;;;;;51.78;27.05;;;;;;;3.65;76.68;99072.69;3130475;28;20055;-68
2022/01/06 05:19:49;;;;;;;48.10;25.98;;;;;;;3.70;76.62;99077.72;3131896;28;20102;-69
2022/01/06 05:21:21;;;;;;;50.20;25.35;;;;;;;3.71;76.66;99083.72;3129346;28;20094;-69
2022/01/06 05:22:56;;;;;;;44.38;24.33;;;;;;;3.49;76.42;99039.69;3131224;28;20529;-70
2022/01/06 05:24:28;;;;;;;44.03;24.67;;;;;;;3.69;76.50;99070.88;3125428;28;20048;-70
2022/01/06 05:26:01;;;;;;;48.33;25.77;;;;;;;3.70;76.41;99082.88;3130153;28;20054;-70
2022/01/06 05:27:33;;;;;;;49.33;24.98;;;;;;;3.69;76.57;99078.59;3131225;28;20049;-70
2022/01/06 05:29:06;;;;;;;46.67;24.25;;;;;;;3.69;76.51;99086.31;3128402;28;20612;-70
2022/01/06 05:30:37;;;;;;;48.33;25.60;;;;;;;3.68;76.53;99084.63;3130116;28;20114;-70
2022/01/06 05:32:09;;;;;;;51.00;25.13;;;;;;;3.66;76.47;99083.81;3128864;28;20500;-70
2022/01/06 05:33:42;;;;;;;45.75;23.75;;;;;;;3.69;76.52;99094.03;3127862;28;20071;-70
2022/01/06 05:35:14;;;;;;;47.65;24.15;;;;;;;3.70;76.43;99087.16;3130874;28;20110;-70
2022/01/06 05:36:45;;;;;;;43.90;21.52;;;;;;;3.68;76.39;99089.78;3133001;28;20052;-70
2022/01/06 05:38:18;;;;;;;41.33;22.02;;;;;;;3.68;76.42;99100.09;3132432;28;20098;-70
2022/01/06 05:39:49;;;;;;;38.03;21.00;;;;;;;3.62;76.42;99083.06;3133250;28;20052;-70
2022/01/06 05:41:23;;;;;;;42.00;20.92;;;;;;;3.65;76.38;99090.72;3131167;28;20095;-70
2022/01/06 05:42:56;;;;;;;47.45;22.33;;;;;;;3.65;76.33;99095.03;3128700;28;20053;-70
2022/01/06 05:44:32;;;;;;;40.63;22.15;;;;;;;3.64;76.43;99094.19;3123285;28;20466;-69
2022/01/06 05:46:05;;;;;;;41.95;21.98;;;;;;;3.63;76.48;99094.22;3123070;28;20059;-70
2022/01/06 05:47:37;;;;;;;39.92;21.77;;;;;;;3.66;76.47;99099.28;3124977;28;20045;-70
2022/01/06 05:49:09;;;;;;;44.28;22.75;;;;;;;3.63;76.29;99097.63;3123144;28;20053;-70
2022/01/06 05:50:40;;;;;;;39.22;21.17;;;;;;;3.68;76.28;99100.09;3124445;28;20107;-70
2022/01/06 05:52:12;;;;;;;39.50;20.92;;;;;;;3.62;76.29;99084.81;3119204;28;20503;-70
2022/01/06 05:53:44;;;;;;;37.42;20.30;;;;;;;3.68;76.25;99094.09;3121506;28;20057;-70
2022/01/06 05:55:16;;;;;;;40.03;20.63;;;;;;;3.69;76.38;99106.06;3124705;28;20510;-70
2022/01/06 05:56:50;;;;;;;40.50;19.98;;;;;;;3.72;76.36;99108.56;3122873;28;20300;-70
2022/01/06 05:58:22;;;;;;;41.72;20.73;;;;;;;3.72;76.35;99103.41;3124247;28;20053;-70
2022/01/06 05:59:55;;;;;;;37.90;20.45;;;;;;;3.73;76.15;99105.97;3125113;28;20060;-70
2022/01/06 06:01:27;;;;;;;42.88;21.63;;;;;;;3.72;76.38;99106.81;3122876;28;20522;-70
2022/01/06 06:03:11;;;;;;;41.97;21.95;;;;;;;3.77;76.15;99101.56;3125947;28;20518;-70
2022/01/06 06:04:43;;;;;;;43.72;22.08;;;;;;;3.75;76.47;99095.59;3118885;28;20051;-68
2022/01/06 06:06:15;;;;;;;41.28;22.40;;;;;;;3.79;76.33;99097.22;3121261;28;20602;-68
2022/01/06 06:07:47;;;;;;;45.85;23.65;;;;;;;3.79;76.38;99092.91;3124162;28;20053;-68
2022/01/06 06:09:19;;;;;;;48.75;23.77;;;;;;;3.85;76.34;99110.75;3122538;28;20053;-68
2022/01/06 06:10:51;;;;;;;45.17;22.60;;;;;;;3.87;76.40;99103.84;3122984;28;20055;-68
2022/01/06 06:12:25;;;;;;;44.80;24.25;;;;;;;3.91;76.26;99099.44;3124385;28;20509;-68
2022/01/06 06:13:57;;;;;;;48.85;23.92;;;;;;;3.94;76.27;99101.09;3121784;28;20057;-68
2022/01/06 06:15:34;;;;;;;46.58;24.67;;;;;;;3.97;76.38;99104.41;3123021;28;20057;-69
2022/01/06 06:17:06;;;;;;;48.72;24.88;;;;;;;3.97;76.32;99103.56;3122606;28;20068;-71
2022/01/06 06:18:38;;;;;;;49.88;24.85;;;;;;;4.05;76.23;99111.88;3122764;28;20049;-73
2022/01/06 06:20:11;;;;;;;41.95;23.27;;;;;;;4.09;76.16;99110.94;3124432;28;20497;-71
2022/01/06 06:21:43;;;;;;;49.00;24.98;;;;;;;3.96;76.23;99084.66;3119702;28;20049;-71
2022/01/06 06:23:15;;;;;;;44.60;23.02;;;;;;;4.09;76.04;99104.03;3122819;28;20075;-69
2022/01/06 06:24:47;;;;;;;43.25;22.25;;;;;;;4.19;76.07;99114.91;3120767;28;20564;-68
2022/01/06 06:26:19;;;;;;;39.47;22.23;;;;;;;4.25;75.93;99112.13;3120301;28;20107;-70
2022/01/06 06:27:52;;;;;;;42.80;23.27;;;;;;;4.30;75.81;99106.84;3124071;28;20057;-69
2022/01/06 06:29:24;;;;;;;45.45;22.90;;;;;;;4.31;75.67;99105.97;3122885;28;20053;-69
2022/01/06 06:30:58;;;;;;;43.15;21.13;;;;;;;4.39;75.63;99113.47;3121749;28;20415;-69
2022/01/06 06:32:33;;;;;;;46.60;23.05;;;;;;;4.44;75.61;99112.44;3124002;28;20488;-69
2022/01/06 06:34:05;;;;;;;50.00;25.83;;;;;;;4.42;75.47;99098.75;3120366;28;20593;-69
2022/01/06 06:35:38;;;;;;;44.15;22.17;;;;;;;4.53;75.37;99111.31;3122376;28;20106;-70
2022/01/06 06:37:10;;;;;;;48.10;23.50;;;;;;;4.53;75.21;99108.72;3120651;28;20379;-70
2022/01/06 06:38:42;;;;;;;41.28;22.80;;;;;;;4.62;75.07;99108.44;3120800;28;20044;-68
2022/01/06 06:40:14;;;;;;;40.92;18.67;;;;;;;4.66;74.86;99102.28;3123402;28;20740;-70
2022/01/06 06:41:47;;;;;;;50.03;19.17;;;;;;;4.71;74.72;99105.56;3122139;28;20049;-69
2022/01/06 06:43:20;;;;;;;39.17;19.80;;;;;;;4.77;74.57;99105.34;3123450;28;20351;-71
2022/01/06 06:44:52;;;;;;;36.50;18.50;;;;;;;4.81;74.52;99107.81;3116681;28;20065;-68
2022/01/06 06:46:25;;;;;;;40.50;19.17;;;;;;;4.86;74.49;99114.53;3121276;28;20513;-66
2022/01/06 06:47:57;;;;;;;47.53;25.30;;;;;;;4.91;74.35;99109.19;3122031;28;20107;-70
2022/01/06 06:49:30;;;;;;;46.85;24.60;;;;;;;4.92;74.13;99103.16;3123219;28;20049;-71
2022/01/06 06:51:02;;;;;;;47.85;26.80;;;;;;;5.00;74.14;99114.91;3123098;28;20316;-66
2022/01/06 06:52:34;;;;;;;42.80;22.33;;;;;;;5.08;74.03;99119.81;3123267;28;20056;-65
2022/01/06 06:54:07;;;;;;;44.67;23.33;;;;;;;5.14;74.04;99122.19;3121998;28;20171;-66
2022/01/06 06:55:39;;;;;;;39.70;21.55;;;;;;;5.20;73.78;99119.38;3121834;28;20144;-69
2022/01/06 06:57:11;;;;;;;40.17;22.98;;;;;;;5.27;73.63;99125.19;3119023;28;20057;-70
2022/01/06 06:58:44;;;;;;;50.20;20.98;;;;;;;5.33;73.49;99129.31;3121563;28;20122;-70
2022/01/06 07:00:17;;;;;;;40.00;20.65;;;;;;;5.37;73.33;99130.88;3121634;28;20049;-70
2022/01/06 07:01:49;;;;;;;38.95;19.88;;;;;;;5.44;73.20;99132.34;3117191;28;20071;-69
2022/01/06 07:03:21;;;;;;;34.63;18.35;;;;;;;5.46;73.12;99120.22;3123145;28;20060;-69
2022/01/06 07:04:53;;;;;;;37.25;18.90;;;;;;;5.56;72.84;99126.78;3123825;28;20061;-69
2022/01/06 07:06:25;;;;;;;40.03;20.85;;;;;;;5.62;72.69;99131.72;3121469;28;20055;-74
2022/01/06 07:07:57;;;;;;;35.15;19.63;;;;;;;5.69;72.48;99133.16;3121373;28;20636;-70
2022/01/06 07:09:28;;;;;;;41.80;20.33;;;;;;;5.75;72.21;99141.59;3122617;28;20171;-70
2022/01/06 07:11:01;;;;;;;73.63;34.88;;;;;;;5.80;71.93;99144.88;3120873;28;20513;-69
2022/01/06 07:12:33;;;;;;;40.70;21.38;;;;;;;5.86;71.87;99142.06;3122543;28;20080;-70
2022/01/06 07:14:06;;;;;;;86.43;40.45;;;;;;;5.90;71.41;99139.31;3117644;28;20057;-70
2022/01/06 07:15:41;;;;;;;56.75;28.75;;;;;;;5.94;71.39;99145.22;3117973;28;20056;-69
2022/01/06 07:17:13;;;;;;;40.78;22.70;;;;;;;6.03;71.22;99147.47;3116384;28;20127;-70
2022/01/06 07:18:45;;;;;;;45.63;22.98;;;;;;;6.08;71.02;99150.72;3122940;28;20052;-69